Terminal Aerodrome Forecast
Issued by NWS

Home | Current Version | Previous Version | Graphics & Text | Print | Product List | Glossary On
Versions: 1 2 3 4 5 6 7 8 9 10 11 12 13 14 15 16 17 18 19 20
000
FTUS41 KCLE 181700
TAFFDY
TAF
KFDY 181740Z 1818/1918 08007KT P6SM BKN060
     FM182100 07005KT P6SM SCT060
     FM190200 VRB03KT P6SM SCT250
     FM190900 00000KT 4SM BR SCT035
     FM191300 21007KT P6SM SCT050=

USA.gov is the U.S. government's official web portal to all federal, state and local government web resources and services.